Time;durP1;ratioP1;P1;durP2;ratioP2;P2;SDS_P1;SDS_P2;PMS_P1;PMS_P2;Temp;Humidity;BMP_temperature;BMP_pressure;BME280_temperature;BME280_humidity;BME280_pressure;Samples;Min_cycle;Max_cycle;Signal;HPM_P1;HPM_P2
2022/03/07 02:02:04;;;;;;;8.73;2.70;;;;;;;;;;6177435;23;20040;-90
2022/03/07 02:09:17;;;;;;;;;;;;;;;;;;;;;
2022/03/07 02:33:18;;;;;;;15.30;2.85;;;;;;;;;;6054472;23;20027;-92
2022/03/07 02:35:56;;;;;;;3.28;2.63;;;;;;;;;;6071266;23;20026;-91
2022/03/07 02:38:25;;;;;;;2.92;2.63;;;;;;;;;;6079117;23;20021;-92
2022/03/07 02:41:36;;;;;;;4.53;2.63;;;;;;;;;;6100075;23;20027;-92
2022/03/07 02:44:05;;;;;;;2.53;2.25;;;;;;;;;;5938979;23;20423;-93
2022/03/07 02:46:31;;;;;;;3.58;2.45;;;;;;;;;;5940611;24;20054;-91
2022/03/07 02:49:01;;;;;;;3.47;2.40;;;;;;;;;;5940249;24;20103;-92
2022/03/07 02:51:29;;;;;;;3.03;2.10;;;;;;;;;;5935076;24;20017;-91
2022/03/07 02:54:07;;;;;;;2.53;2.33;;;;;;;;;;5956355;24;20133;-91
2022/03/07 02:56:47;;;;;;;7.35;2.72;;;;;;;;;;5958506;24;20511;-91
2022/03/07 02:59:45;;;;;;;6.45;2.35;;;;;;;;;;5978305;24;20408;-91
2022/03/07 03:02:27;;;;;;;3.67;2.50;;;;;;;;;;5983877;24;20032;-92
2022/03/07 03:05:30;;;;;;;10.70;3.22;;;;;;;;;;5872962;24;20023;-91
2022/03/07 03:14:08;;;;;;;;;;;;;;;;;;;;;
2022/03/07 03:16:58;;;;;;;2.40;2.20;;;;;;;;;;6198349;23;20021;-91
2022/03/07 03:25:20;;;;;;;3.47;2.33;;;;;;;;;;6220750;23;20040;-91
2022/03/07 03:27:54;;;;;;;5.40;1.85;;;;;;;;;;6174300;23;20020;-91
2022/03/07 03:30:25;;;;;;;4.82;1.92;;;;;;;;;;6170218;23;20023;-93
2022/03/07 03:33:27;;;;;;;;;;;;;;;;;;;;;
2022/03/07 03:36:18;;;;;;;2.75;2.28;;;;;;;;;;6106032;23;20024;-91
2022/03/07 03:38:48;;;;;;;3.67;2.28;;;;;;;;;;6168601;23;20472;-91
2022/03/07 03:41:33;;;;;;;3.58;2.47;;;;;;;;;;6169697;23;20075;-92
2022/03/07 03:44:08;;;;;;;4.40;2.28;;;;;;;;;;6171577;23;20027;-91
2022/03/07 03:46:46;;;;;;;3.88;2.53;;;;;;;;;;6170577;23;20016;-91
2022/03/07 03:52:49;;;;;;;2.58;2.10;;;;;;;;;;6222547;23;20351;-90
2022/03/07 03:55:53;;;;;;;2.78;1.95;;;;;;;;;;6194408;23;20095;-90
2022/03/07 03:59:07;;;;;;;3.83;2.20;;;;;;;;;;6170410;23;20024;-91
2022/03/07 04:01:45;;;;;;;2.60;2.17;;;;;;;;;;6074376;23;20472;-91
2022/03/07 04:04:25;;;;;;;2.90;2.15;;;;;;;;;;5991028;23;20031;-92
2022/03/07 04:07:01;;;;;;;3.88;2.75;;;;;;;;;;5989279;23;20031;-90
2022/03/07 04:09:27;;;;;;;2.75;2.33;;;;;;;;;;6135218;23;20364;-90
2022/03/07 04:15:15;;;;;;;3.70;2.47;;;;;;;;;;6074853;23;20074;-90
2022/03/07 04:17:51;;;;;;;3.90;2.28;;;;;;;;;;6051545;23;20026;-89
2022/03/07 04:20:22;;;;;;;1.98;1.88;;;;;;;;;;6052174;23;20025;-90
2022/03/07 04:22:59;;;;;;;9.85;2.85;;;;;;;;;;6050349;23;20111;-90
2022/03/07 04:25:28;;;;;;;4.00;2.33;;;;;;;;;;6050608;23;20029;-90
2022/03/07 04:27:55;;;;;;;3.70;2.30;;;;;;;;;;6050874;23;20030;-90
2022/03/07 04:30:30;;;;;;;2.85;2.55;;;;;;;;;;6051935;23;20033;-90
2022/03/07 04:32:56;;;;;;;2.35;2.15;;;;;;;;;;6052009;23;20014;-90
2022/03/07 04:35:25;;;;;;;2.90;2.38;;;;;;;;;;6051938;23;20023;-91
2022/03/07 04:37:58;;;;;;;3.50;2.55;;;;;;;;;;6050136;23;20018;-90
2022/03/07 04:40:24;;;;;;;3.53;2.58;;;;;;;;;;6073864;23;20026;-91
2022/03/07 04:45:58;;;;;;;;;;;;;;;;;;;;;
2022/03/07 04:49:11;;;;;;;5.78;3.65;;;;;;;;;;6192853;23;20017;-91
2022/03/07 04:55:23;;;;;;;7.00;2.97;;;;;;;;;;6017507;23;20051;-91
2022/03/07 04:58:10;;;;;;;3.25;2.60;;;;;;;;;;5995626;23;20054;-91
2022/03/07 05:00:54;;;;;;;3.15;2.35;;;;;;;;;;5995617;23;20020;-90
2022/03/07 05:06:28;;;;;;;7.15;3.10;;;;;;;;;;6017359;23;20022;-89
2022/03/07 05:08:55;;;;;;;4.03;2.50;;;;;;;;;;5993852;23;20324;-90
2022/03/07 05:11:27;;;;;;;3.13;2.33;;;;;;;;;;5994258;23;20026;-90
2022/03/07 05:14:18;;;;;;;;;;;;;;;;;;;;;
2022/03/07 05:16:48;;;;;;;2.88;2.45;;;;;;;;;;5925077;23;20488;-91
2022/03/07 05:19:27;;;;;;;3.53;2.13;;;;;;;;;;6017686;23;20054;-91
2022/03/07 05:22:05;;;;;;;10.10;3.28;;;;;;;;;;5994310;23;20079;-92
2022/03/07 05:24:39;;;;;;;3.22;2.45;;;;;;;;;;5957360;24;20040;-90
2022/03/07 05:27:06;;;;;;;5.55;2.35;;;;;;;;;;5917563;24;20049;-91
2022/03/07 05:29:32;;;;;;;2.92;2.65;;;;;;;;;;5980791;23;20056;-90
2022/03/07 05:32:04;;;;;;;6.25;2.38;;;;;;;;;;5990537;23;20058;-90
2022/03/07 05:35:09;;;;;;;6.15;2.20;;;;;;;;;;6010398;23;20375;-91
2022/03/07 05:41:16;;;;;;;;;;;;;;;;;;;;;
2022/03/07 05:43:43;;;;;;;3.28;2.78;;;;;;;;;;6075934;23;20058;-90
2022/03/07 05:46:15;;;;;;;4.93;2.55;;;;;;;;;;6052460;23;20029;-90
2022/03/07 05:48:49;;;;;;;3.45;2.45;;;;;;;;;;6053773;23;20018;-92
2022/03/07 05:51:23;;;;;;;5.47;2.45;;;;;;;;;;6076609;23;20468;-91
2022/03/07 05:53:52;;;;;;;4.43;2.20;;;;;;;;;;6052537;23;20015;-91
2022/03/07 05:56:27;;;;;;;5.72;2.17;;;;;;;;;;6076756;23;20107;-91
2022/03/07 05:58:57;;;;;;;2.78;2.58;;;;;;;;;;6052285;23;20065;-91
2022/03/07 06:01:31;;;;;;;2.70;2.50;;;;;;;;;;6053054;23;20073;-91
2022/03/07 06:04:08;;;;;;;5.88;2.33;;;;;;;;;;6052466;23;20333;-92
2022/03/07 06:06:53;;;;;;;8.50;2.60;;;;;;;;;;6079158;23;20023;-91
2022/03/07 06:09:28;;;;;;;5.93;2.58;;;;;;;;;;6052177;23;20078;-91
2022/03/07 06:12:08;;;;;;;5.43;3.03;;;;;;;;;;6052173;23;20021;-90
2022/03/07 06:14:34;;;;;;;3.60;2.47;;;;;;;;;;6099859;23;20041;-91
2022/03/07 06:17:29;;;;;;;3.58;3.28;;;;;;;;;;6071771;23;20016;-91
2022/03/07 06:20:32;;;;;;;7.05;3.25;;;;;;;;;;6019207;23;20019;-92
2022/03/07 06:23:19;;;;;;;4.45;3.20;;;;;;;;;;5995886;23;20019;-92
2022/03/07 06:26:03;;;;;;;4.57;3.20;;;;;;;;;;5962301;24;20035;-90
2022/03/07 06:28:32;;;;;;;4.10;2.80;;;;;;;;;;5939351;24;20017;-91
2022/03/07 06:31:05;;;;;;;6.60;3.67;;;;;;;;;;5939910;23;20068;-91
2022/03/07 06:33:40;;;;;;;10.15;3.15;;;;;;;;;;5962446;24;20027;-91
2022/03/07 06:42:10;;;;;;;6.32;4.20;;;;;;;;;;6251994;23;20322;-92
2022/03/07 06:48:03;;;;;;;7.38;4.35;;;;;;;;;;5991797;23;20020;-91
2022/03/07 06:50:50;;;;;;;7.90;4.03;;;;;;;;;;5967089;23;20350;-91
2022/03/07 06:53:19;;;;;;;8.80;3.83;;;;;;;;;;5966407;23;20340;-91
2022/03/07 06:55:54;;;;;;;6.53;4.72;;;;;;;;;;5968568;23;20023;-93
2022/03/07 06:58:21;;;;;;;7.45;3.67;;;;;;;;;;5968143;23;20308;-92
2022/03/07 07:01:05;;;;;;;8.30;3.80;;;;;;;;;;5968938;23;20030;-91
2022/03/07 07:03:34;;;;;;;7.25;3.90;;;;;;;;;;5968497;23;20034;-92
2022/03/07 07:06:03;;;;;;;7.68;3.80;;;;;;;;;;6067434;23;20079;-94
2022/03/07 07:08:30;;;;;;;24.98;4.45;;;;;;;;;;6164528;23;20021;-91
2022/03/07 07:10:56;;;;;;;9.60;3.85;;;;;;;;;;6165049;23;20036;-93
2022/03/07 07:13:33;;;;;;;11.43;4.55;;;;;;;;;;6164038;23;20032;-92
2022/03/07 07:16:26;;;;;;;6.72;4.05;;;;;;;;;;6166429;23;20055;-92
2022/03/07 07:19:06;;;;;;;4.82;3.97;;;;;;;;;;6193239;22;20444;-94
2022/03/07 07:21:41;;;;;;;6.13;4.55;;;;;;;;;;6155532;23;20155;-92
2022/03/07 07:24:32;;;;;;;7.50;4.03;;;;;;;;;;6138683;23;20022;-93
2022/03/07 07:27:05;;;;;;;4.57;3.85;;;;;;;;;;6138032;23;20020;-93
2022/03/07 07:29:52;;;;;;;9.85;4.35;;;;;;;;;;6160038;23;20032;-92
2022/03/07 07:32:21;;;;;;;6.13;3.50;;;;;;;;;;6141000;23;20029;-92
2022/03/07 07:38:03;;;;;;;7.57;4.07;;;;;;;;;;6101081;23;20104;-93
2022/03/07 07:40:55;;;;;;;6.18;3.38;;;;;;;;;;6103692;23;20021;-92
2022/03/07 07:43:36;;;;;;;5.82;3.72;;;;;;;;;;6103563;23;20088;-91
2022/03/07 07:46:14;;;;;;;5.30;4.00;;;;;;;;;;6103166;23;20017;-90
2022/03/07 07:48:40;;;;;;;13.25;4.47;;;;;;;;;;6097721;23;20018;-91
2022/03/07 07:51:12;;;;;;;4.50;3.60;;;;;;;;;;6049317;23;20070;-91
2022/03/07 07:53:39;;;;;;;5.65;3.97;;;;;;;;;;6050283;23;20456;-91
2022/03/07 07:56:14;;;;;;;10.38;3.83;;;;;;;;;;6049723;23;20049;-92
2022/03/07 07:58:50;;;;;;;10.38;4.35;;;;;;;;;;6047536;23;20025;-91
2022/03/07 08:01:33;;;;;;;9.10;3.70;;;;;;;;;;6052017;23;20018;-90
2022/03/07 08:04:07;;;;;;;6.40;4.00;;;;;;;;;;6047368;23;20018;-91
2022/03/07 08:06:44;;;;;;;11.43;5.00;;;;;;;;;;6048663;23;20413;-91
2022/03/07 08:09:42;;;;;;;9.30;4.88;;;;;;;;;;5987644;23;20020;-93
2022/03/07 15:57:09;;;;;;;4.40;1.88;;;;;;;;;;6205214;22;20033;-90
2022/03/07 16:00:10;;;;;;;1.80;1.67;;;;;;;;;;6173934;23;20024;-90
2022/03/07 16:02:52;;;;;;;10.18;2.80;;;;;;;;;;6171770;23;20062;-91
2022/03/07 16:05:30;;;;;;;2.40;1.73;;;;;;;;;;6153959;22;20024;-90
2022/03/07 16:08:00;;;;;;;3.35;2.13;;;;;;;;;;6204387;23;20247;-84
2022/03/07 16:10:32;;;;;;;3.22;2.30;;;;;;;;;;6204102;23;20353;-86
2022/03/07 16:12:58;;;;;;;4.00;2.50;;;;;;;;;;6229171;23;20020;-85
2022/03/07 16:15:28;;;;;;;4.10;2.40;;;;;;;;;;6205771;23;20047;-88
2022/03/07 16:17:55;;;;;;;5.13;2.30;;;;;;;;;;6205215;23;20016;-89
2022/03/07 16:20:22;;;;;;;3.15;2.47;;;;;;;;;;6204825;23;20100;-88
2022/03/07 16:22:48;;;;;;;3.08;2.30;;;;;;;;;;6204452;23;20016;-88
2022/03/07 16:25:16;;;;;;;2.42;2.22;;;;;;;;;;6205920;23;20016;-87
2022/03/07 16:27:54;;;;;;;3.63;2.65;;;;;;;;;;6206163;23;20442;-89
2022/03/07 16:30:40;;;;;;;3.10;2.78;;;;;;;;;;6206078;23;20044;-90
2022/03/07 16:33:09;;;;;;;4.60;2.65;;;;;;;;;;6206493;23;20068;-85
2022/03/07 16:35:35;;;;;;;3.75;2.80;;;;;;;;;;6218834;23;20031;-87
2022/03/07 16:38:13;;;;;;;3.13;2.65;;;;;;;;;;6171864;23;20021;-89
2022/03/07 16:40:42;;;;;;;5.70;2.53;;;;;;;;;;6147953;23;20021;-88
2022/03/07 16:43:18;;;;;;;7.55;3.35;;;;;;;;;;6146806;23;20033;-91
2022/03/07 16:45:53;;;;;;;2.72;2.53;;;;;;;;;;6099509;23;20087;-89
2022/03/07 16:48:22;;;;;;;4.85;2.95;;;;;;;;;;6069610;23;20097;-89
2022/03/07 16:50:48;;;;;;;2.38;2.17;;;;;;;;;;6071355;23;20440;-86
2022/03/07 16:53:15;;;;;;;3.17;2.75;;;;;;;;;;6095847;23;20085;-90
2022/03/07 16:55:43;;;;;;;8.25;2.80;;;;;;;;;;6069829;23;20472;-89
2022/03/07 16:58:13;;;;;;;4.97;2.28;;;;;;;;;;6068070;23;20026;-92
2022/03/07 17:00:49;;;;;;;6.38;2.90;;;;;;;;;;6094761;23;20019;-87
2022/03/07 17:03:18;;;;;;;2.78;2.42;;;;;;;;;;6072437;23;20026;-87
2022/03/07 17:05:44;;;;;;;3.53;2.47;;;;;;;;;;6072179;23;20085;-87
2022/03/07 17:08:11;;;;;;;3.78;2.80;;;;;;;;;;6096372;23;20020;-87
2022/03/07 17:10:39;;;;;;;3.03;2.45;;;;;;;;;;6092778;23;20029;-88
2022/03/07 17:16:16;;;;;;;4.50;2.63;;;;;;;;;;6120846;23;20030;-88
2022/03/07 17:19:01;;;;;;;3.80;3.20;;;;;;;;;;6190953;23;20088;31
2022/03/07 17:21:34;;;;;;;4.15;3.25;;;;;;;;;;6156852;23;20025;-88
2022/03/07 17:24:14;;;;;;;4.70;3.45;;;;;;;;;;6131645;23;20017;-88
2022/03/07 17:26:49;;;;;;;8.30;3.47;;;;;;;;;;6133229;23;20052;-87
2022/03/07 17:29:24;;;;;;;6.85;3.85;;;;;;;;;;6155596;23;20025;-88
2022/03/07 17:31:53;;;;;;;9.32;3.80;;;;;;;;;;6133168;23;20124;-88
2022/03/07 17:34:19;;;;;;;5.78;3.67;;;;;;;;;;6136699;23;20096;-87
2022/03/07 17:36:47;;;;;;;4.72;4.05;;;;;;;;;;6162968;23;20057;-88
2022/03/07 17:39:17;;;;;;;4.65;3.47;;;;;;;;;;6163288;23;20533;-88
2022/03/07 17:41:44;;;;;;;4.35;2.90;;;;;;;;;;6162654;23;20017;-88
2022/03/07 17:44:10;;;;;;;4.63;3.10;;;;;;;;;;6163345;23;20016;-88
2022/03/07 17:46:36;;;;;;;4.72;3.97;;;;;;;;;;6163131;23;20020;-88
2022/03/07 17:49:03;;;;;;;9.35;3.80;;;;;;;;;;6162369;23;20505;-88
2022/03/07 17:51:29;;;;;;;4.60;3.08;;;;;;;;;;6163820;23;20021;-88
2022/03/07 17:53:55;;;;;;;7.38;4.60;;;;;;;;;;6162585;23;20336;-88
2022/03/07 17:56:21;;;;;;;8.77;4.47;;;;;;;;;;6163667;23;20443;-88
2022/03/07 17:58:47;;;;;;;11.25;5.18;;;;;;;;;;6163572;23;20339;-88
2022/03/07 18:01:14;;;;;;;7.32;3.63;;;;;;;;;;6163309;23;20021;-88
2022/03/07 18:03:40;;;;;;;8.77;3.95;;;;;;;;;;6162672;23;20020;-88
2022/03/07 18:06:06;;;;;;;9.75;4.30;;;;;;;;;;6163789;23;20305;-88
2022/03/07 18:08:32;;;;;;;7.57;4.20;;;;;;;;;;6161714;23;20013;-88
2022/03/07 18:10:58;;;;;;;7.80;4.13;;;;;;;;;;6163509;23;20063;-88
2022/03/07 18:13:26;;;;;;;10.88;5.25;;;;;;;;;;6163087;23;20032;-89
2022/03/07 18:15:52;;;;;;;8.63;5.00;;;;;;;;;;6162192;23;20068;-88
2022/03/07 18:18:18;;;;;;;8.27;4.20;;;;;;;;;;6162969;23;20027;-88
2022/03/07 18:20:45;;;;;;;7.60;4.75;;;;;;;;;;6162650;23;20048;-88
2022/03/07 18:23:11;;;;;;;5.43;4.57;;;;;;;;;;6163505;23;20024;-87
2022/03/07 18:25:37;;;;;;;8.07;5.35;;;;;;;;;;6162451;23;20071;-88
2022/03/07 18:28:06;;;;;;;7.35;4.72;;;;;;;;;;6162814;23;20032;-88
2022/03/07 18:30:32;;;;;;;8.95;4.50;;;;;;;;;;6161881;23;20075;-88
2022/03/07 18:32:59;;;;;;;8.25;4.40;;;;;;;;;;6162738;23;20017;-87
2022/03/07 18:35:25;;;;;;;15.98;4.75;;;;;;;;;;6162451;23;20067;-88
2022/03/07 18:37:51;;;;;;;9.45;4.78;;;;;;;;;;6159843;23;20013;-88
2022/03/07 18:40:17;;;;;;;9.80;5.18;;;;;;;;;;6163602;23;20435;-88
2022/03/07 18:42:44;;;;;;;6.72;4.40;;;;;;;;;;6162167;23;20024;-88
2022/03/07 18:45:11;;;;;;;6.50;4.43;;;;;;;;;;6162198;23;20346;-90
2022/03/07 18:47:38;;;;;;;9.73;5.05;;;;;;;;;;6162321;23;20021;-90
2022/03/07 18:50:06;;;;;;;6.63;4.53;;;;;;;;;;6161674;23;20063;-91
2022/03/07 18:52:32;;;;;;;17.73;5.32;;;;;;;;;;6162290;23;20017;-89
2022/03/07 18:54:58;;;;;;;8.30;5.10;;;;;;;;;;6163090;23;20021;-91
2022/03/07 18:57:25;;;;;;;7.57;4.40;;;;;;;;;;6163489;23;20068;-93
2022/03/07 18:59:53;;;;;;;10.48;5.07;;;;;;;;;;6163843;23;20017;-93
2022/03/07 19:02:20;;;;;;;8.48;4.07;;;;;;;;;;6162823;23;20017;-93
2022/03/07 19:04:46;;;;;;;7.68;3.70;;;;;;;;;;6164784;23;20100;-92
2022/03/07 19:07:15;;;;;;;10.23;5.10;;;;;;;;;;6164400;23;20467;-94
2022/03/07 19:09:42;;;;;;;9.60;4.55;;;;;;;;;;6165478;23;20066;-91
2022/03/07 19:12:08;;;;;;;7.93;5.15;;;;;;;;;;6164893;23;20017;-90
2022/03/07 19:14:34;;;;;;;8.30;4.75;;;;;;;;;;6165246;23;20020;-92
2022/03/07 19:17:02;;;;;;;7.93;4.35;;;;;;;;;;6165201;23;20466;-91
2022/03/07 19:19:28;;;;;;;6.03;4.22;;;;;;;;;;6164988;23;20410;-91
2022/03/07 19:21:55;;;;;;;6.15;4.18;;;;;;;;;;6166113;23;20147;-94
2022/03/07 19:24:21;;;;;;;11.65;5.40;;;;;;;;;;6164703;23;20017;-93
2022/03/07 19:26:47;;;;;;;7.68;4.88;;;;;;;;;;6164823;23;20024;-94
2022/03/07 19:29:16;;;;;;;7.20;4.85;;;;;;;;;;6165611;23;20017;-92
2022/03/07 19:31:42;;;;;;;9.10;4.68;;;;;;;;;;6166133;23;20502;-94
2022/03/07 19:34:08;;;;;;;5.68;4.35;;;;;;;;;;6165181;23;20454;-92
2022/03/07 19:36:35;;;;;;;8.70;4.95;;;;;;;;;;6164285;23;20021;-89
2022/03/07 19:39:01;;;;;;;7.35;4.90;;;;;;;;;;6164082;23;20486;-89
2022/03/07 19:41:27;;;;;;;6.72;4.95;;;;;;;;;;6163960;23;20021;-89
2022/03/07 19:43:53;;;;;;;9.95;5.28;;;;;;;;;;6165017;23;20030;-89
2022/03/07 19:46:19;;;;;;;7.78;5.22;;;;;;;;;;6165337;23;20013;-89
2022/03/07 19:48:45;;;;;;;9.93;5.32;;;;;;;;;;6164243;23;20043;-87
2022/03/07 19:51:12;;;;;;;10.95;6.07;;;;;;;;;;6163670;23;20447;-88
2022/03/07 19:53:38;;;;;;;13.32;6.38;;;;;;;;;;6163503;23;20028;-88
2022/03/07 19:56:05;;;;;;;6.53;5.25;;;;;;;;;;6162917;23;20028;-88
2022/03/07 19:58:31;;;;;;;9.68;5.65;;;;;;;;;;6162904;23;20020;-87
2022/03/07 20:00:57;;;;;;;15.02;5.10;;;;;;;;;;6164270;23;20364;-89
2022/03/07 20:03:23;;;;;;;11.05;4.93;;;;;;;;;;6164672;23;20431;-88
2022/03/07 20:05:51;;;;;;;6.05;4.95;;;;;;;;;;6165231;23;20017;-89
2022/03/07 20:08:17;;;;;;;11.48;5.45;;;;;;;;;;6163270;23;20017;-88
2022/03/07 20:10:43;;;;;;;6.55;4.60;;;;;;;;;;6163199;23;20484;-88
2022/03/07 20:13:09;;;;;;;5.97;5.32;;;;;;;;;;6163824;23;20056;-88
2022/03/07 20:15:35;;;;;;;8.98;4.75;;;;;;;;;;6163885;23;20032;-88
2022/03/07 20:18:04;;;;;;;8.90;5.97;;;;;;;;;;6162890;23;20017;-88
2022/03/07 20:20:31;;;;;;;8.07;5.38;;;;;;;;;;6162604;23;20470;-88
2022/03/07 20:22:57;;;;;;;9.40;5.10;;;;;;;;;;6163102;23;20032;-87
2022/03/07 20:25:24;;;;;;;9.63;5.50;;;;;;;;;;6189699;23;20068;-88
2022/03/07 20:27:50;;;;;;;9.52;5.72;;;;;;;;;;6163325;23;20021;-89
2022/03/07 20:30:16;;;;;;;13.82;5.90;;;;;;;;;;6162614;23;20021;-88
2022/03/07 20:32:43;;;;;;;6.85;5.95;;;;;;;;;;6162741;23;20017;-88
2022/03/07 20:35:10;;;;;;;10.80;5.38;;;;;;;;;;6162889;23;20346;-88
2022/03/07 20:37:36;;;;;;;10.82;5.63;;;;;;;;;;6162726;23;20316;-88
2022/03/07 20:40:04;;;;;;;11.50;5.30;;;;;;;;;;6162461;23;20071;-88
2022/03/07 20:42:30;;;;;;;7.47;5.45;;;;;;;;;;6162979;23;20017;-89
2022/03/07 20:44:56;;;;;;;10.02;5.53;;;;;;;;;;6162794;23;20017;-87
2022/03/07 20:47:23;;;;;;;8.95;6.35;;;;;;;;;;6162893;23;20020;-89
2022/03/07 20:49:49;;;;;;;9.43;4.90;;;;;;;;;;6162745;23;20420;-90
2022/03/07 20:52:15;;;;;;;8.75;4.95;;;;;;;;;;6161943;23;20391;-91
2022/03/07 20:54:41;;;;;;;11.27;5.40;;;;;;;;;;6163023;23;20478;-91
2022/03/07 20:57:07;;;;;;;8.82;4.05;;;;;;;;;;6162575;23;20100;-91
2022/03/07 20:59:34;;;;;;;8.25;4.90;;;;;;;;;;6163770;23;20078;-92
2022/03/07 21:02:00;;;;;;;9.23;4.30;;;;;;;;;;6162301;23;20052;-91
2022/03/07 21:04:27;;;;;;;9.18;5.13;;;;;;;;;;6163900;23;20028;-92
2022/03/07 21:06:53;;;;;;;6.65;4.72;;;;;;;;;;6162789;23;20017;-89
2022/03/07 21:09:19;;;;;;;9.77;5.35;;;;;;;;;;6164468;23;20021;-94
2022/03/07 21:11:45;;;;;;;16.08;6.95;;;;;;;;;;6164630;23;20021;-89
2022/03/07 21:14:11;;;;;;;9.60;6.38;;;;;;;;;;6166398;23;20052;-88
2022/03/07 21:16:38;;;;;;;9.40;6.20;;;;;;;;;;6165776;23;20013;-91
2022/03/07 21:19:04;;;;;;;6.80;5.07;;;;;;;;;;6164875;23;20020;-90
2022/03/07 21:21:31;;;;;;;7.57;5.10;;;;;;;;;;6165181;23;20071;-94
2022/03/07 21:23:58;;;;;;;8.32;4.50;;;;;;;;;;6165176;23;20017;-91
2022/03/07 21:26:24;;;;;;;8.02;4.13;;;;;;;;;;6165159;23;20024;-89
2022/03/07 21:28:50;;;;;;;6.72;4.45;;;;;;;;;;6163400;23;20017;-89
2022/03/07 21:31:16;;;;;;;6.40;4.43;;;;;;;;;;6163657;23;20017;-89
2022/03/07 21:33:47;;;;;;;11.95;5.05;;;;;;;;;;6164776;23;20017;-87
2022/03/07 21:36:14;;;;;;;8.25;4.75;;;;;;;;;;6164571;23;20060;-89
2022/03/07 21:38:43;;;;;;;7.20;4.80;;;;;;;;;;6164743;23;20024;-88
2022/03/07 21:41:21;;;;;;;9.63;5.05;;;;;;;;;;6164575;23;20100;-88
2022/03/07 21:43:47;;;;;;;7.03;4.47;;;;;;;;;;6165429;23;20017;-88
2022/03/07 21:46:13;;;;;;;6.78;4.47;;;;;;;;;;6162618;23;20053;-89
2022/03/07 21:48:39;;;;;;;7.50;4.93;;;;;;;;;;6163460;23;20064;-89
2022/03/07 21:51:05;;;;;;;6.50;5.38;;;;;;;;;;6164353;23;20039;-89
2022/03/07 21:53:31;;;;;;;7.82;5.63;;;;;;;;;;6162852;23;20351;-87
2022/03/07 21:55:57;;;;;;;6.97;4.57;;;;;;;;;;6162896;23;20017;-87
2022/03/07 21:58:24;;;;;;;7.15;4.78;;;;;;;;;;6164834;23;20017;-87
2022/03/07 22:00:50;;;;;;;7.78;4.93;;;;;;;;;;6164187;23;20045;-88
2022/03/07 22:03:16;;;;;;;6.15;4.03;;;;;;;;;;6163454;23;20324;-87
2022/03/07 22:05:42;;;;;;;7.05;5.10;;;;;;;;;;6163038;23;20017;-87
2022/03/07 22:08:11;;;;;;;7.00;5.20;;;;;;;;;;6163244;23;20025;-87
2022/03/07 22:10:38;;;;;;;7.35;5.45;;;;;;;;;;6163651;23;20025;-87
2022/03/07 22:13:04;;;;;;;7.22;4.32;;;;;;;;;;6163616;23;20075;-88
2022/03/07 22:15:30;;;;;;;7.97;4.90;;;;;;;;;;6164295;23;20048;-89
2022/03/07 22:17:58;;;;;;;7.43;4.80;;;;;;;;;;6163851;23;20169;-88
2022/03/07 22:20:25;;;;;;;7.60;5.35;;;;;;;;;;6162979;23;20394;-88
2022/03/07 22:22:51;;;;;;;6.15;4.85;;;;;;;;;;6164142;23;20017;-89
2022/03/07 22:25:17;;;;;;;7.25;5.13;;;;;;;;;;6164225;23;20028;-87
2022/03/07 22:27:43;;;;;;;10.68;5.63;;;;;;;;;;6164498;23;20335;-88
2022/03/07 22:30:10;;;;;;;6.25;5.03;;;;;;;;;;6163954;23;20024;-89
2022/03/07 22:32:36;;;;;;;8.75;6.00;;;;;;;;;;6162564;23;20347;-89
2022/03/07 22:35:02;;;;;;;8.98;5.82;;;;;;;;;;6163069;23;20343;-89
2022/03/07 22:37:28;;;;;;;6.45;5.20;;;;;;;;;;6163517;23;20024;-91
2022/03/07 22:39:54;;;;;;;7.72;5.50;;;;;;;;;;6163512;23;20068;-90
2022/03/07 22:42:21;;;;;;;7.60;5.25;;;;;;;;;;6163979;23;20013;-93
2022/03/07 22:44:47;;;;;;;8.70;5.03;;;;;;;;;;6162817;23;20109;-91
2022/03/07 22:47:13;;;;;;;6.18;4.57;;;;;;;;;;6163777;23;20087;-91
2022/03/07 22:49:39;;;;;;;6.45;4.93;;;;;;;;;;6164028;23;20301;-92
2022/03/07 22:52:06;;;;;;;11.93;6.10;;;;;;;;;;6163397;23;20021;-92
2022/03/07 22:54:32;;;;;;;9.77;5.57;;;;;;;;;;6163824;23;20024;-93
2022/03/07 22:56:59;;;;;;;12.48;4.93;;;;;;;;;;6163124;23;20017;-90
2022/03/07 22:59:25;;;;;;;6.25;4.78;;;;;;;;;;6163732;23;20013;-92
2022/03/07 23:01:51;;;;;;;10.38;6.10;;;;;;;;;;6164170;23;20021;-92
2022/03/07 23:04:17;;;;;;;12.57;5.97;;;;;;;;;;6164256;23;20017;-93
2022/03/07 23:09:30;;;;;;;8.13;5.22;;;;;;;;;;6162716;23;20079;-89
2022/03/07 23:11:56;;;;;;;6.82;5.35;;;;;;;;;;6163229;23;20025;-95
2022/03/07 23:14:22;;;;;;;14.45;5.68;;;;;;;;;;6164392;23;20379;-95
2022/03/07 23:16:49;;;;;;;9.93;5.88;;;;;;;;;;6163836;23;20013;-94
2022/03/07 23:19:15;;;;;;;10.65;5.78;;;;;;;;;;6163750;23;20033;-94
2022/03/07 23:21:41;;;;;;;8.85;5.55;;;;;;;;;;6162320;23;20021;-95
2022/03/07 23:24:07;;;;;;;9.88;5.32;;;;;;;;;;6163324;23;20021;-94
2022/03/07 23:26:34;;;;;;;8.55;5.53;;;;;;;;;;6163221;23;20025;-95
2022/03/07 23:29:04;;;;;;;9.63;6.45;;;;;;;;;;6163091;23;20028;-94
2022/03/07 23:31:30;;;;;;;9.30;5.80;;;;;;;;;;6162944;23;20043;-94
2022/03/07 23:33:58;;;;;;;10.60;5.13;;;;;;;;;;6163825;23;20036;-93
2022/03/07 23:36:25;;;;;;;9.13;5.38;;;;;;;;;;6163484;23;20052;-95
2022/03/07 23:38:51;;;;;;;7.78;5.20;;;;;;;;;;6164085;23;20021;-95
2022/03/07 23:41:20;;;;;;;14.43;5.40;;;;;;;;;;6189984;23;20059;-94
2022/03/07 23:43:46;;;;;;;7.28;5.45;;;;;;;;;;6163403;23;20100;-91
2022/03/07 23:46:12;;;;;;;7.95;5.45;;;;;;;;;;6164368;23;20017;-89
2022/03/07 23:48:39;;;;;;;8.38;5.25;;;;;;;;;;6163159;23;20103;-91
2022/03/07 23:51:05;;;;;;;12.20;4.80;;;;;;;;;;6164771;23;20028;-91
2022/03/07 23:53:34;;;;;;;8.93;5.75;;;;;;;;;;6165975;23;20048;-95
2022/03/07 23:56:00;;;;;;;6.57;4.97;;;;;;;;;;6166193;23;20021;-95
2022/03/07 23:58:26;;;;;;;5.88;4.45;;;;;;;;;;6164662;23;20374;-95
